リヴァプール の空港の天気 - METARとTAF

リバプール・ジョン・レノン空港 ( EGGP / LPL ) - イギリス リヴァプール
飛行場実況気象(Metar)
観測時間07/09 14:50 BST (07/09 13:50 UTC)
風向・風速北東 6m/s
視程10km以上
天気現象
全天の8割程度の雲 雲底高度 610m
気温15℃
湿度77%
気圧1013hPa
METAREGGP 091350Z 04011KT 9999 BKN020 15/11 Q1013
過去の天気等 Google飛行場航空写真 Wunderground天気予報

過去48時間のMETAR

飛行場予報(TAF)
発表時間: 7/09 12:03 BST (7/09 11:03 UTC)
予報対象時間: 9日13時 BST ~ 10日13時 BST
風向・風速東北東 8m/s
視程10km以上
全天の8割程度の雲 雲底高度 490m
9日13時 BST ~ 9日19時 BST に 確率 30% で一時的に
視程6000m
天気現象弱い雨霧雨
全天の8割程度の雲 雲底高度 370m
9日19時 BST ~ 10日1時 BST に一時的に
視程7000m
天気現象しゅう雨
全天の8割程度の雲 雲底高度 430m
9日23時 BST ~ 10日2時 BST に徐々に
風向・風速西北西 4m/s
10日2時 BST ~ 10日5時 BST に徐々に
風向・風速西北西 9m/s
10日7時 BST ~ 10日13時 BST に一時的に
視程7000m
天気現象しゅう雨
全天の8割程度の雲 雲底高度 430m
TAF EGGP 091103Z 0912/1012 07015KT 9999 BKN016
PROB30 TEMPO 0912/0918 6000 -RADZ BKN012
TEMPO 0918/0924 7000 SHRA BKN014
BECMG 0922/1001 30007KT
BECMG 1001/1004 30018KT
TEMPO 1006/1012 7000 SHRA BKN014